sensor_id;sensor_type;location;lat;lon;timestamp;temperature;humidity
9658;DHT22;4867;48.112;11.622;2023-03-13T00:01:20;6.40;99.90
9658;DHT22;4867;48.112;11.622;2023-03-13T00:03:47;6.30;99.90
9658;DHT22;4867;48.112;11.622;2023-03-13T00:06:16;6.30;99.90
9658;DHT22;4867;48.112;11.622;2023-03-13T00:08:43;6.30;99.90
9658;DHT22;4867;48.112;11.622;2023-03-13T00:11:12;6.30;99.90
9658;DHT22;4867;48.112;11.622;2023-03-13T00:13:40;6.30;99.90
9658;DHT22;4867;48.112;11.622;2023-03-13T00:16:17;6.20;99.90
9658;DHT22;4867;48.112;11.622;2023-03-13T00:18:49;6.20;99.90
9658;DHT22;4867;48.112;11.622;2023-03-13T00:21:19;6.20;99.90
9658;DHT22;4867;48.112;11.622;2023-03-13T00:23:47;6.10;99.90
9658;DHT22;4867;48.112;11.622;2023-03-13T00:26:20;6.10;99.90
9658;DHT22;4867;48.112;11.622;2023-03-13T00:28:48;6.10;99.90
9658;DHT22;4867;48.112;11.622;2023-03-13T00:31:19;6.10;99.90
9658;DHT22;4867;48.112;11.622;2023-03-13T00:33:51;6.10;99.90
9658;DHT22;4867;48.112;11.622;2023-03-13T00:36:24;6.00;99.90
9658;DHT22;4867;48.112;11.622;2023-03-13T00:38:52;6.00;99.90
9658;DHT22;4867;48.112;11.622;2023-03-13T00:41:26;6.00;99.90
9658;DHT22;4867;48.112;11.622;2023-03-13T00:43:54;6.00;99.90
9658;DHT22;4867;48.112;11.622;2023-03-13T00:46:23;5.90;99.90
9658;DHT22;4867;48.112;11.622;2023-03-13T00:48:51;5.90;99.90
9658;DHT22;4867;48.112;11.622;2023-03-13T00:51:20;5.90;99.90
9658;DHT22;4867;48.112;11.622;2023-03-13T00:53:48;5.80;99.90
9658;DHT22;4867;48.112;11.622;2023-03-13T00:56:16;5.80;99.90
9658;DHT22;4867;48.112;11.622;2023-03-13T00:58:45;5.70;99.90
9658;DHT22;4867;48.112;11.622;2023-03-13T01:01:17;5.60;99.90
9658;DHT22;4867;48.112;11.622;2023-03-13T01:03:50;5.60;99.90
9658;DHT22;4867;48.112;11.622;2023-03-13T01:06:21;5.60;99.90
9658;DHT22;4867;48.112;11.622;2023-03-13T01:08:49;5.50;99.90
9658;DHT22;4867;48.112;11.622;2023-03-13T01:11:22;5.50;99.90
9658;DHT22;4867;48.112;11.622;2023-03-13T01:13:56;5.50;99.90
9658;DHT22;4867;48.112;11.622;2023-03-13T01:16:26;5.40;99.90
9658;DHT22;4867;48.112;11.622;2023-03-13T01:18:57;5.40;99.90
9658;DHT22;4867;48.112;11.622;2023-03-13T01:21:25;5.40;99.90
9658;DHT22;4867;48.112;11.622;2023-03-13T01:23:53;5.30;99.90
9658;DHT22;4867;48.112;11.622;2023-03-13T01:26:21;5.30;99.90
9658;DHT22;4867;48.112;11.622;2023-03-13T01:28:49;5.30;99.90
9658;DHT22;4867;48.112;11.622;2023-03-13T01:31:24;5.20;99.90
9658;DHT22;4867;48.112;11.622;2023-03-13T01:33:57;5.20;99.90
9658;DHT22;4867;48.112;11.622;2023-03-13T01:36:25;5.20;99.90
9658;DHT22;4867;48.112;11.622;2023-03-13T01:38:54;5.10;99.90
9658;DHT22;4867;48.112;11.622;2023-03-13T01:41:24;5.20;99.90
9658;DHT22;4867;48.112;11.622;2023-03-13T01:43:52;5.00;99.90
9658;DHT22;4867;48.112;11.622;2023-03-13T01:46:23;5.00;99.90
9658;DHT22;4867;48.112;11.622;2023-03-13T01:49:14;5.00;99.90
9658;DHT22;4867;48.112;11.622;2023-03-13T01:52:10;5.00;99.90
9658;DHT22;4867;48.112;11.622;2023-03-13T01:57:33;4.80;99.90
9658;DHT22;4867;48.112;11.622;2023-03-13T02:00:17;4.80;99.90
9658;DHT22;4867;48.112;11.622;2023-03-13T02:02:48;4.80;99.90
9658;DHT22;4867;48.112;11.622;2023-03-13T02:05:19;4.80;99.90
9658;DHT22;4867;48.112;11.622;2023-03-13T02:07:54;4.80;99.90
9658;DHT22;4867;48.112;11.622;2023-03-13T02:10:24;4.70;99.90
9658;DHT22;4867;48.112;11.622;2023-03-13T02:12:55;4.70;99.90
9658;DHT22;4867;48.112;11.622;2023-03-13T02:15:25;4.70;99.90
9658;DHT22;4867;48.112;11.622;2023-03-13T02:17:55;4.70;99.90
9658;DHT22;4867;48.112;11.622;2023-03-13T02:20:24;4.70;99.90
9658;DHT22;4867;48.112;11.622;2023-03-13T02:23:02;4.70;99.90
9658;DHT22;4867;48.112;11.622;2023-03-13T02:25:34;4.70;99.90
9658;DHT22;4867;48.112;11.622;2023-03-13T02:28:20;4.80;99.90
9658;DHT22;4867;48.112;11.622;2023-03-13T02:30:53;4.80;99.90
9658;DHT22;4867;48.112;11.622;2023-03-13T02:33:25;4.80;99.90
9658;DHT22;4867;48.112;11.622;2023-03-13T02:35:53;4.80;99.90
9658;DHT22;4867;48.112;11.622;2023-03-13T02:38:24;4.70;99.90
9658;DHT22;4867;48.112;11.622;2023-03-13T02:40:52;4.80;99.90
9658;DHT22;4867;48.112;11.622;2023-03-13T02:43:33;4.70;99.90
9658;DHT22;4867;48.112;11.622;2023-03-13T02:46:08;4.80;99.90
9658;DHT22;4867;48.112;11.622;2023-03-13T02:48:43;4.70;99.90
9658;DHT22;4867;48.112;11.622;2023-03-13T02:51:24;4.70;99.90
9658;DHT22;4867;48.112;11.622;2023-03-13T02:53:57;4.70;99.90
9658;DHT22;4867;48.112;11.622;2023-03-13T02:56:27;4.70;99.90
9658;DHT22;4867;48.112;11.622;2023-03-13T02:58:56;4.70;99.90
9658;DHT22;4867;48.112;11.622;2023-03-13T03:01:26;4.70;99.90
9658;DHT22;4867;48.112;11.622;2023-03-13T03:03:53;4.70;99.90
9658;DHT22;4867;48.112;11.622;2023-03-13T03:06:20;4.80;99.90
9658;DHT22;4867;48.112;11.622;2023-03-13T03:08:48;4.80;99.90
9658;DHT22;4867;48.112;11.622;2023-03-13T03:11:17;4.90;99.90
9658;DHT22;4867;48.112;11.622;2023-03-13T03:13:49;4.80;99.90
9658;DHT22;4867;48.112;11.622;2023-03-13T03:16:17;4.80;99.90
9658;DHT22;4867;48.112;11.622;2023-03-13T03:18:47;4.80;99.90
9658;DHT22;4867;48.112;11.622;2023-03-13T03:21:15;4.80;99.90
9658;DHT22;4867;48.112;11.622;2023-03-13T03:23:42;4.90;99.90
9658;DHT22;4867;48.112;11.622;2023-03-13T03:26:09;4.80;99.90
9658;DHT22;4867;48.112;11.622;2023-03-13T03:28:38;4.80;99.90
9658;DHT22;4867;48.112;11.622;2023-03-13T03:31:11;4.80;99.90
9658;DHT22;4867;48.112;11.622;2023-03-13T03:33:40;4.80;99.90
9658;DHT22;4867;48.112;11.622;2023-03-13T03:36:13;4.80;99.90
9658;DHT22;4867;48.112;11.622;2023-03-13T03:38:41;4.80;99.90
9658;DHT22;4867;48.112;11.622;2023-03-13T03:41:11;4.80;99.90
9658;DHT22;4867;48.112;11.622;2023-03-13T03:43:40;4.90;99.90
9658;DHT22;4867;48.112;11.622;2023-03-13T03:46:08;4.90;99.90
9658;DHT22;4867;48.112;11.622;2023-03-13T03:48:36;4.90;99.90
9658;DHT22;4867;48.112;11.622;2023-03-13T03:51:06;4.90;99.90
9658;DHT22;4867;48.112;11.622;2023-03-13T03:53:37;5.00;99.90
9658;DHT22;4867;48.112;11.622;2023-03-13T03:56:05;5.00;99.90
9658;DHT22;4867;48.112;11.622;2023-03-13T03:58:33;5.00;99.90
9658;DHT22;4867;48.112;11.622;2023-03-13T04:01:26;5.00;99.90
9658;DHT22;4867;48.112;11.622;2023-03-13T04:03:54;5.00;99.90
9658;DHT22;4867;48.112;11.622;2023-03-13T04:06:21;5.00;99.90
9658;DHT22;4867;48.112;11.622;2023-03-13T04:08:48;5.00;99.90
9658;DHT22;4867;48.112;11.622;2023-03-13T04:11:18;4.90;99.90
9658;DHT22;4867;48.112;11.622;2023-03-13T04:13:49;4.90;99.90
9658;DHT22;4867;48.112;11.622;2023-03-13T04:16:17;4.80;99.90
9658;DHT22;4867;48.112;11.622;2023-03-13T04:18:46;4.90;99.90
9658;DHT22;4867;48.112;11.622;2023-03-13T04:21:14;4.90;99.90
9658;DHT22;4867;48.112;11.622;2023-03-13T04:23:46;4.90;99.90
9658;DHT22;4867;48.112;11.622;2023-03-13T04:26:14;5.00;99.90
9658;DHT22;4867;48.112;11.622;2023-03-13T04:28:42;5.00;99.90
9658;DHT22;4867;48.112;11.622;2023-03-13T04:31:14;5.00;99.90
9658;DHT22;4867;48.112;11.622;2023-03-13T04:34:00;5.10;99.90
9658;DHT22;4867;48.112;11.622;2023-03-13T04:36:40;5.10;99.90
9658;DHT22;4867;48.112;11.622;2023-03-13T04:39:26;5.10;99.90
9658;DHT22;4867;48.112;11.622;2023-03-13T04:42:16;5.10;99.90
9658;DHT22;4867;48.112;11.622;2023-03-13T04:45:04;5.10;99.90
9658;DHT22;4867;48.112;11.622;2023-03-13T04:47:54;5.10;99.90
9658;DHT22;4867;48.112;11.622;2023-03-13T04:50:46;5.20;99.90
9658;DHT22;4867;48.112;11.622;2023-03-13T04:53:26;5.20;99.90
9658;DHT22;4867;48.112;11.622;2023-03-13T04:56:24;5.20;99.90
9658;DHT22;4867;48.112;11.622;2023-03-13T04:59:35;5.20;99.90
9658;DHT22;4867;48.112;11.622;2023-03-13T05:02:21;5.30;99.90
9658;DHT22;4867;48.112;11.622;2023-03-13T05:05:20;5.30;99.90
9658;DHT22;4867;48.112;11.622;2023-03-13T05:07:56;5.40;99.90
9658;DHT22;4867;48.112;11.622;2023-03-13T05:10:34;5.50;99.90
9658;DHT22;4867;48.112;11.622;2023-03-13T05:13:19;5.50;99.90
9658;DHT22;4867;48.112;11.622;2023-03-13T05:16:19;5.50;99.90
9658;DHT22;4867;48.112;11.622;2023-03-13T05:19:12;5.60;99.90
9658;DHT22;4867;48.112;11.622;2023-03-13T05:21:58;5.60;99.90
9658;DHT22;4867;48.112;11.622;2023-03-13T05:24:43;5.60;99.90
9658;DHT22;4867;48.112;11.622;2023-03-13T05:27:30;5.70;99.90
9658;DHT22;4867;48.112;11.622;2023-03-13T05:30:23;5.70;99.90
9658;DHT22;4867;48.112;11.622;2023-03-13T05:33:06;5.70;99.90
9658;DHT22;4867;48.112;11.622;2023-03-13T05:35:57;5.70;99.90
9658;DHT22;4867;48.112;11.622;2023-03-13T05:38:37;5.80;99.90
9658;DHT22;4867;48.112;11.622;2023-03-13T05:41:18;5.80;99.90
9658;DHT22;4867;48.112;11.622;2023-03-13T05:44:11;5.80;99.90
9658;DHT22;4867;48.112;11.622;2023-03-13T05:46:56;5.80;99.90
9658;DHT22;4867;48.112;11.622;2023-03-13T05:49:49;5.80;99.90
9658;DHT22;4867;48.112;11.622;2023-03-13T05:52:28;5.90;99.90
9658;DHT22;4867;48.112;11.622;2023-03-13T05:55:18;6.00;99.90
9658;DHT22;4867;48.112;11.622;2023-03-13T05:58:06;6.10;99.90
9658;DHT22;4867;48.112;11.622;2023-03-13T06:00:52;6.20;99.90
9658;DHT22;4867;48.112;11.622;2023-03-13T06:03:46;6.40;99.90
9658;DHT22;4867;48.112;11.622;2023-03-13T06:06:15;6.40;99.90
9658;DHT22;4867;48.112;11.622;2023-03-13T06:08:45;6.40;99.90
9658;DHT22;4867;48.112;11.622;2023-03-13T06:11:13;6.40;99.90
9658;DHT22;4867;48.112;11.622;2023-03-13T06:13:41;6.40;99.90
9658;DHT22;4867;48.112;11.622;2023-03-13T06:16:24;6.50;99.90
9658;DHT22;4867;48.112;11.622;2023-03-13T06:18:56;6.50;99.90
9658;DHT22;4867;48.112;11.622;2023-03-13T06:21:24;6.60;99.90
9658;DHT22;4867;48.112;11.622;2023-03-13T06:23:53;6.60;99.90
9658;DHT22;4867;48.112;11.622;2023-03-13T06:26:20;6.70;99.90
9658;DHT22;4867;48.112;11.622;2023-03-13T06:28:50;6.80;99.90
9658;DHT22;4867;48.112;11.622;2023-03-13T06:31:17;6.90;99.90
9658;DHT22;4867;48.112;11.622;2023-03-13T06:33:45;6.90;99.90
9658;DHT22;4867;48.112;11.622;2023-03-13T06:36:12;7.00;99.90
9658;DHT22;4867;48.112;11.622;2023-03-13T06:38:39;7.10;99.90
9658;DHT22;4867;48.112;11.622;2023-03-13T06:41:07;7.20;99.90
9658;DHT22;4867;48.112;11.622;2023-03-13T06:43:34;7.30;99.90
9658;DHT22;4867;48.112;11.622;2023-03-13T06:46:04;7.30;99.90
9658;DHT22;4867;48.112;11.622;2023-03-13T06:48:31;7.40;99.90
9658;DHT22;4867;48.112;11.622;2023-03-13T06:50:58;7.40;99.90
9658;DHT22;4867;48.112;11.622;2023-03-13T06:53:26;7.40;99.90
9658;DHT22;4867;48.112;11.622;2023-03-13T06:55:53;7.50;99.90
9658;DHT22;4867;48.112;11.622;2023-03-13T06:58:20;7.50;99.90
9658;DHT22;4867;48.112;11.622;2023-03-13T07:01:19;7.50;99.90
9658;DHT22;4867;48.112;11.622;2023-03-13T07:03:47;7.60;99.90
9658;DHT22;4867;48.112;11.622;2023-03-13T07:06:15;7.60;99.90
9658;DHT22;4867;48.112;11.622;2023-03-13T07:08:42;7.60;99.90
9658;DHT22;4867;48.112;11.622;2023-03-13T07:11:12;7.60;99.90
9658;DHT22;4867;48.112;11.622;2023-03-13T07:13:40;7.60;99.90
9658;DHT22;4867;48.112;11.622;2023-03-13T07:16:09;7.60;99.90
9658;DHT22;4867;48.112;11.622;2023-03-13T07:18:37;7.60;99.90
9658;DHT22;4867;48.112;11.622;2023-03-13T07:21:08;7.70;99.90
9658;DHT22;4867;48.112;11.622;2023-03-13T07:23:35;7.70;99.90
9658;DHT22;4867;48.112;11.622;2023-03-13T07:26:05;7.80;99.90
9658;DHT22;4867;48.112;11.622;2023-03-13T07:28:33;7.90;99.90
9658;DHT22;4867;48.112;11.622;2023-03-13T07:31:16;8.00;99.90
9658;DHT22;4867;48.112;11.622;2023-03-13T07:33:44;8.10;99.90
9658;DHT22;4867;48.112;11.622;2023-03-13T07:36:13;8.20;99.90
9658;DHT22;4867;48.112;11.622;2023-03-13T07:38:41;8.30;99.90
9658;DHT22;4867;48.112;11.622;2023-03-13T07:41:11;8.30;99.90
9658;DHT22;4867;48.112;11.622;2023-03-13T07:43:39;8.30;99.90
9658;DHT22;4867;48.112;11.622;2023-03-13T07:46:09;8.40;99.90
9658;DHT22;4867;48.112;11.622;2023-03-13T07:48:40;8.50;99.90
9658;DHT22;4867;48.112;11.622;2023-03-13T07:51:12;8.50;99.90
9658;DHT22;4867;48.112;11.622;2023-03-13T07:53:39;8.60;99.90
9658;DHT22;4867;48.112;11.622;2023-03-13T07:56:11;8.60;99.90
9658;DHT22;4867;48.112;11.622;2023-03-13T07:58:39;8.70;99.90
9658;DHT22;4867;48.112;11.622;2023-03-13T08:01:09;8.90;99.90
9658;DHT22;4867;48.112;11.622;2023-03-13T08:03:37;8.90;99.90
9658;DHT22;4867;48.112;11.622;2023-03-13T08:06:10;9.00;99.90
9658;DHT22;4867;48.112;11.622;2023-03-13T08:08:39;9.00;99.90
9658;DHT22;4867;48.112;11.622;2023-03-13T08:11:09;9.20;99.90
9658;DHT22;4867;48.112;11.622;2023-03-13T08:13:37;9.30;99.90
9658;DHT22;4867;48.112;11.622;2023-03-13T08:16:06;9.40;99.90
9658;DHT22;4867;48.112;11.622;2023-03-13T08:18:35;9.60;99.90
9658;DHT22;4867;48.112;11.622;2023-03-13T08:21:07;9.80;99.90
9658;DHT22;4867;48.112;11.622;2023-03-13T08:23:36;9.90;99.90
9658;DHT22;4867;48.112;11.622;2023-03-13T08:28:36;10.30;99.90
9658;DHT22;4867;48.112;11.622;2023-03-13T08:31:23;10.50;99.90
9658;DHT22;4867;48.112;11.622;2023-03-13T08:33:51;10.70;99.90
9658;DHT22;4867;48.112;11.622;2023-03-13T08:36:21;10.70;99.90
9658;DHT22;4867;48.112;11.622;2023-03-13T08:38:52;10.70;99.90
9658;DHT22;4867;48.112;11.622;2023-03-13T08:41:25;10.70;99.90
9658;DHT22;4867;48.112;11.622;2023-03-13T08:43:55;10.60;99.90
9658;DHT22;4867;48.112;11.622;2023-03-13T08:46:23;10.40;99.90
9658;DHT22;4867;48.112;11.622;2023-03-13T08:48:52;10.30;99.90
9658;DHT22;4867;48.112;11.622;2023-03-13T08:51:22;10.40;99.90
9658;DHT22;4867;48.112;11.622;2023-03-13T08:53:50;10.50;99.90
9658;DHT22;4867;48.112;11.622;2023-03-13T08:56:19;10.60;99.90
9658;DHT22;4867;48.112;11.622;2023-03-13T08:58:51;10.80;99.90
9658;DHT22;4867;48.112;11.622;2023-03-13T09:01:20;10.90;99.90
9658;DHT22;4867;48.112;11.622;2023-03-13T09:03:48;11.00;99.90
9658;DHT22;4867;48.112;11.622;2023-03-13T09:06:16;11.20;99.90
9658;DHT22;4867;48.112;11.622;2023-03-13T09:08:43;11.40;99.90
9658;DHT22;4867;48.112;11.622;2023-03-13T09:11:13;11.50;99.90
9658;DHT22;4867;48.112;11.622;2023-03-13T09:13:46;11.70;99.90
9658;DHT22;4867;48.112;11.622;2023-03-13T09:16:16;12.10;99.90
9658;DHT22;4867;48.112;11.622;2023-03-13T09:18:44;12.30;99.90
9658;DHT22;4867;48.112;11.622;2023-03-13T09:21:14;12.40;99.90
9658;DHT22;4867;48.112;11.622;2023-03-13T09:23:42;12.80;99.90
9658;DHT22;4867;48.112;11.622;2023-03-13T09:26:13;12.80;99.90
9658;DHT22;4867;48.112;11.622;2023-03-13T09:28:41;12.90;99.90
9658;DHT22;4867;48.112;11.622;2023-03-13T09:31:29;12.90;99.90
9658;DHT22;4867;48.112;11.622;2023-03-13T09:33:57;12.90;99.90
9658;DHT22;4867;48.112;11.622;2023-03-13T09:36:25;12.90;99.90
9658;DHT22;4867;48.112;11.622;2023-03-13T09:38:55;12.90;99.90
9658;DHT22;4867;48.112;11.622;2023-03-13T09:41:51;13.10;99.90
9658;DHT22;4867;48.112;11.622;2023-03-13T09:44:26;13.20;99.90
9658;DHT22;4867;48.112;11.622;2023-03-13T09:47:00;13.30;99.90
9658;DHT22;4867;48.112;11.622;2023-03-13T09:49:37;13.40;99.90
9658;DHT22;4867;48.112;11.622;2023-03-13T09:52:21;13.40;99.90
9658;DHT22;4867;48.112;11.622;2023-03-13T09:54:57;13.50;99.90
9658;DHT22;4867;48.112;11.622;2023-03-13T10:00:05;13.80;99.90
9658;DHT22;4867;48.112;11.622;2023-03-13T10:02:41;14.00;99.90
9658;DHT22;4867;48.112;11.622;2023-03-13T10:05:25;14.20;99.90
9658;DHT22;4867;48.112;11.622;2023-03-13T10:08:00;14.40;99.90
9658;DHT22;4867;48.112;11.622;2023-03-13T10:11:10;14.50;99.90
9658;DHT22;4867;48.112;11.622;2023-03-13T10:16:46;14.90;99.90
9658;DHT22;4867;48.112;11.622;2023-03-13T10:19:17;15.20;99.90
9658;DHT22;4867;48.112;11.622;2023-03-13T10:21:49;15.50;99.90
9658;DHT22;4867;48.112;11.622;2023-03-13T10:24:35;15.60;99.90
9658;DHT22;4867;48.112;11.622;2023-03-13T10:27:03;15.90;99.90
9658;DHT22;4867;48.112;11.622;2023-03-13T10:29:31;16.00;99.90
9658;DHT22;4867;48.112;11.622;2023-03-13T10:32:06;16.00;99.90
9658;DHT22;4867;48.112;11.622;2023-03-13T10:37:24;16.10;99.90
9658;DHT22;4867;48.112;11.622;2023-03-13T10:39:52;16.20;99.90
9658;DHT22;4867;48.112;11.622;2023-03-13T10:42:42;16.30;99.90
9658;DHT22;4867;48.112;11.622;2023-03-13T10:45:17;16.40;99.90
9658;DHT22;4867;48.112;11.622;2023-03-13T10:47:44;16.40;99.90
9658;DHT22;4867;48.112;11.622;2023-03-13T10:50:21;16.30;99.90
9658;DHT22;4867;48.112;11.622;2023-03-13T10:52:50;16.40;99.90
9658;DHT22;4867;48.112;11.622;2023-03-13T10:55:22;16.40;99.90
9658;DHT22;4867;48.112;11.622;2023-03-13T10:58:03;16.60;99.90
9658;DHT22;4867;48.112;11.622;2023-03-13T11:00:38;16.60;99.90
9658;DHT22;4867;48.112;11.622;2023-03-13T11:03:18;16.70;99.90
9658;DHT22;4867;48.112;11.622;2023-03-13T11:06:00;16.90;99.90
9658;DHT22;4867;48.112;11.622;2023-03-13T11:08:34;17.00;99.90
9658;DHT22;4867;48.112;11.622;2023-03-13T11:11:18;17.00;99.90
9658;DHT22;4867;48.112;11.622;2023-03-13T11:13:46;17.00;99.90
9658;DHT22;4867;48.112;11.622;2023-03-13T11:16:23;17.10;99.90
9658;DHT22;4867;48.112;11.622;2023-03-13T11:22:02;17.30;99.90
9658;DHT22;4867;48.112;11.622;2023-03-13T11:27:23;17.50;99.90
9658;DHT22;4867;48.112;11.622;2023-03-13T11:32:55;17.40;99.90
9658;DHT22;4867;48.112;11.622;2023-03-13T11:35:45;17.40;99.90
9658;DHT22;4867;48.112;11.622;2023-03-13T11:56:49;17.60;99.90
9658;DHT22;4867;48.112;11.622;2023-03-13T11:59:43;17.80;99.90
9658;DHT22;4867;48.112;11.622;2023-03-13T12:02:53;17.90;99.90
9658;DHT22;4867;48.112;11.622;2023-03-13T12:05:19;17.90;99.90
9658;DHT22;4867;48.112;11.622;2023-03-13T12:08:03;18.10;99.90
9658;DHT22;4867;48.112;11.622;2023-03-13T12:10:32;18.40;99.90
9658;DHT22;4867;48.112;11.622;2023-03-13T12:13:26;18.40;99.90
9658;DHT22;4867;48.112;11.622;2023-03-13T12:15:58;18.50;99.90
9658;DHT22;4867;48.112;11.622;2023-03-13T12:18:34;18.50;99.90
9658;DHT22;4867;48.112;11.622;2023-03-13T12:23:54;18.40;99.90
9658;DHT22;4867;48.112;11.622;2023-03-13T12:26:44;18.30;99.90
9658;DHT22;4867;48.112;11.622;2023-03-13T12:32:13;18.00;99.90
9658;DHT22;4867;48.112;11.622;2023-03-13T12:34:59;18.00;99.90
9658;DHT22;4867;48.112;11.622;2023-03-13T12:40:43;18.10;99.90
9658;DHT22;4867;48.112;11.622;2023-03-13T12:43:17;18.00;99.90
9658;DHT22;4867;48.112;11.622;2023-03-13T12:51:29;18.20;99.90
9658;DHT22;4867;48.112;11.622;2023-03-13T12:59:23;18.50;99.90
9658;DHT22;4867;48.112;11.622;2023-03-13T13:01:54;18.30;99.90
9658;DHT22;4867;48.112;11.622;2023-03-13T13:04:29;18.10;99.90
9658;DHT22;4867;48.112;11.622;2023-03-13T13:07:06;18.20;99.90
9658;DHT22;4867;48.112;11.622;2023-03-13T13:12:37;18.30;99.90
9658;DHT22;4867;48.112;11.622;2023-03-13T13:15:26;18.50;99.90
9658;DHT22;4867;48.112;11.622;2023-03-13T13:21:17;18.60;99.90
9658;DHT22;4867;48.112;11.622;2023-03-13T13:23:24;18.70;99.90
9658;DHT22;4867;48.112;11.622;2023-03-13T13:25:53;18.80;99.90
9658;DHT22;4867;48.112;11.622;2023-03-13T13:30:54;18.70;99.90
9658;DHT22;4867;48.112;11.622;2023-03-13T13:38:39;19.00;99.90
9658;DHT22;4867;48.112;11.622;2023-03-13T13:43:48;19.00;99.90
9658;DHT22;4867;48.112;11.622;2023-03-13T13:46:30;19.00;99.90
9658;DHT22;4867;48.112;11.622;2023-03-13T13:52:16;19.40;99.90
9658;DHT22;4867;48.112;11.622;2023-03-13T13:54:52;19.30;99.90
9658;DHT22;4867;48.112;11.622;2023-03-13T13:57:24;19.20;99.90
9658;DHT22;4867;48.112;11.622;2023-03-13T14:02:50;19.00;99.90
9658;DHT22;4867;48.112;11.622;2023-03-13T14:05:22;19.00;99.90
9658;DHT22;4867;48.112;11.622;2023-03-13T14:07:53;19.00;99.90
9658;DHT22;4867;48.112;11.622;2023-03-13T14:10:50;19.00;99.90
9658;DHT22;4867;48.112;11.622;2023-03-13T14:13:19;19.00;99.90
9658;DHT22;4867;48.112;11.622;2023-03-13T14:15:48;19.00;99.90
9658;DHT22;4867;48.112;11.622;2023-03-13T14:18:26;19.00;99.90
9658;DHT22;4867;48.112;11.622;2023-03-13T14:20:56;19.10;99.90
9658;DHT22;4867;48.112;11.622;2023-03-13T14:23:36;19.20;99.90
9658;DHT22;4867;48.112;11.622;2023-03-13T14:26:21;19.20;99.90
9658;DHT22;4867;48.112;11.622;2023-03-13T14:28:57;19.20;99.90
9658;DHT22;4867;48.112;11.622;2023-03-13T14:31:33;19.20;99.90
9658;DHT22;4867;48.112;11.622;2023-03-13T14:34:03;19.30;99.90
9658;DHT22;4867;48.112;11.622;2023-03-13T14:39:19;19.40;99.90
9658;DHT22;4867;48.112;11.622;2023-03-13T14:41:48;19.40;99.90
9658;DHT22;4867;48.112;11.622;2023-03-13T14:44:24;19.40;99.90
9658;DHT22;4867;48.112;11.622;2023-03-13T14:46:58;19.40;99.90
9658;DHT22;4867;48.112;11.622;2023-03-13T14:49:27;19.50;99.90
9658;DHT22;4867;48.112;11.622;2023-03-13T14:52:04;19.50;99.90
9658;DHT22;4867;48.112;11.622;2023-03-13T14:54:35;19.60;99.90
9658;DHT22;4867;48.112;11.622;2023-03-13T14:59:36;19.60;99.90
9658;DHT22;4867;48.112;11.622;2023-03-13T15:02:20;19.60;99.90
9658;DHT22;4867;48.112;11.622;2023-03-13T15:07:21;19.60;99.90
9658;DHT22;4867;48.112;11.622;2023-03-13T15:09:49;19.60;99.90
9658;DHT22;4867;48.112;11.622;2023-03-13T15:12:19;19.60;99.90
9658;DHT22;4867;48.112;11.622;2023-03-13T15:14:50;19.60;99.90
9658;DHT22;4867;48.112;11.622;2023-03-13T15:19:55;19.50;99.90
9658;DHT22;4867;48.112;11.622;2023-03-13T15:22:36;19.40;99.90
9658;DHT22;4867;48.112;11.622;2023-03-13T15:25:20;19.40;99.90
9658;DHT22;4867;48.112;11.622;2023-03-13T15:27:49;19.30;99.90
9658;DHT22;4867;48.112;11.622;2023-03-13T15:30:19;19.30;99.90
9658;DHT22;4867;48.112;11.622;2023-03-13T15:32:46;19.20;99.90
9658;DHT22;4867;48.112;11.622;2023-03-13T15:37:48;19.00;99.90
9658;DHT22;4867;48.112;11.622;2023-03-13T15:40:16;19.00;99.90
9658;DHT22;4867;48.112;11.622;2023-03-13T15:42:43;19.00;99.90
9658;DHT22;4867;48.112;11.622;2023-03-13T15:45:10;18.90;99.90
9658;DHT22;4867;48.112;11.622;2023-03-13T15:47:38;18.80;99.90
9658;DHT22;4867;48.112;11.622;2023-03-13T15:50:11;18.70;99.90
9658;DHT22;4867;48.112;11.622;2023-03-13T15:52:38;18.70;99.90
9658;DHT22;4867;48.112;11.622;2023-03-13T15:55:06;18.70;99.90
9658;DHT22;4867;48.112;11.622;2023-03-13T15:57:35;18.60;99.90
9658;DHT22;4867;48.112;11.622;2023-03-13T16:00:22;18.60;99.90
9658;DHT22;4867;48.112;11.622;2023-03-13T16:02:50;18.50;99.90
9658;DHT22;4867;48.112;11.622;2023-03-13T16:05:17;18.50;99.90
9658;DHT22;4867;48.112;11.622;2023-03-13T16:07:45;18.50;99.90
9658;DHT22;4867;48.112;11.622;2023-03-13T16:10:26;18.60;99.90
9658;DHT22;4867;48.112;11.622;2023-03-13T16:12:54;18.60;99.90
9658;DHT22;4867;48.112;11.622;2023-03-13T16:15:21;18.60;99.90
9658;DHT22;4867;48.112;11.622;2023-03-13T16:17:49;18.60;99.90
9658;DHT22;4867;48.112;11.622;2023-03-13T16:20:19;18.60;99.90
9658;DHT22;4867;48.112;11.622;2023-03-13T16:22:47;18.50;99.90
9658;DHT22;4867;48.112;11.622;2023-03-13T16:25:14;18.30;99.90
9658;DHT22;4867;48.112;11.622;2023-03-13T16:27:42;18.20;99.90
9658;DHT22;4867;48.112;11.622;2023-03-13T16:30:39;18.10;99.90
9658;DHT22;4867;48.112;11.622;2023-03-13T16:33:10;17.90;99.90
9658;DHT22;4867;48.112;11.622;2023-03-13T16:35:38;17.80;99.90
9658;DHT22;4867;48.112;11.622;2023-03-13T16:38:05;17.70;99.90
9658;DHT22;4867;48.112;11.622;2023-03-13T16:40:34;17.60;99.90
9658;DHT22;4867;48.112;11.622;2023-03-13T16:43:01;17.50;99.90
9658;DHT22;4867;48.112;11.622;2023-03-13T16:45:29;17.40;99.90
9658;DHT22;4867;48.112;11.622;2023-03-13T16:47:56;17.20;99.90
9658;DHT22;4867;48.112;11.622;2023-03-13T16:50:35;17.00;99.90
9658;DHT22;4867;48.112;11.622;2023-03-13T16:53:03;17.00;99.90
9658;DHT22;4867;48.112;11.622;2023-03-13T16:55:31;16.80;99.90
9658;DHT22;4867;48.112;11.622;2023-03-13T16:58:02;16.60;99.90
9658;DHT22;4867;48.112;11.622;2023-03-13T17:00:30;16.40;99.90
9658;DHT22;4867;48.112;11.622;2023-03-13T17:02:58;16.40;99.90
9658;DHT22;4867;48.112;11.622;2023-03-13T17:05:27;16.30;99.90
9658;DHT22;4867;48.112;11.622;2023-03-13T17:07:55;16.10;99.90
9658;DHT22;4867;48.112;11.622;2023-03-13T17:10:30;16.10;99.90
9658;DHT22;4867;48.112;11.622;2023-03-13T17:12:58;16.00;99.90
9658;DHT22;4867;48.112;11.622;2023-03-13T17:15:26;15.80;99.90
9658;DHT22;4867;48.112;11.622;2023-03-13T17:17:54;15.70;99.90
9658;DHT22;4867;48.112;11.622;2023-03-13T17:20:27;15.50;99.90
9658;DHT22;4867;48.112;11.622;2023-03-13T17:22:55;15.40;99.90
9658;DHT22;4867;48.112;11.622;2023-03-13T17:25:23;15.30;99.90
9658;DHT22;4867;48.112;11.622;2023-03-13T17:27:50;15.20;99.90
9658;DHT22;4867;48.112;11.622;2023-03-13T17:30:23;15.00;99.90
9658;DHT22;4867;48.112;11.622;2023-03-13T17:32:51;14.90;99.90
9658;DHT22;4867;48.112;11.622;2023-03-13T17:35:19;14.80;99.90
9658;DHT22;4867;48.112;11.622;2023-03-13T17:37:47;14.80;99.90
9658;DHT22;4867;48.112;11.622;2023-03-13T17:40:16;14.70;99.90
9658;DHT22;4867;48.112;11.622;2023-03-13T17:42:43;14.60;99.90
9658;DHT22;4867;48.112;11.622;2023-03-13T17:45:11;14.50;99.90
9658;DHT22;4867;48.112;11.622;2023-03-13T17:47:39;14.40;99.90
9658;DHT22;4867;48.112;11.622;2023-03-13T17:50:33;14.30;99.90
9658;DHT22;4867;48.112;11.622;2023-03-13T17:53:00;14.20;99.90
9658;DHT22;4867;48.112;11.622;2023-03-13T17:55:27;14.20;99.90
9658;DHT22;4867;48.112;11.622;2023-03-13T17:57:54;14.10;99.90
9658;DHT22;4867;48.112;11.622;2023-03-13T18:00:25;14.00;99.90
9658;DHT22;4867;48.112;11.622;2023-03-13T18:02:55;13.90;99.90
9658;DHT22;4867;48.112;11.622;2023-03-13T18:05:22;13.80;99.90
9658;DHT22;4867;48.112;11.622;2023-03-13T18:07:49;13.80;99.90
9658;DHT22;4867;48.112;11.622;2023-03-13T18:10:23;13.80;99.90